sensor_id;sensor_type;location;lat;lon;timestamp;P1;durP1;ratioP1;P2;durP2;ratioP2
50773;SDS011;36745;48.544;8.918;2024-02-15T00:03:00;9.60;;;4.88;;
50773;SDS011;36745;48.544;8.918;2024-02-15T00:06:20;5.28;;;4.03;;
50773;SDS011;36745;48.544;8.918;2024-02-15T00:09:40;7.95;;;4.70;;
50773;SDS011;36745;48.544;8.918;2024-02-15T00:13:00;10.20;;;4.40;;
50773;SDS011;36745;48.544;8.918;2024-02-15T00:16:19;6.28;;;4.60;;
50773;SDS011;36745;48.544;8.918;2024-02-15T00:19:41;7.45;;;4.30;;
50773;SDS011;36745;48.544;8.918;2024-02-15T00:23:00;7.40;;;4.38;;
50773;SDS011;36745;48.544;8.918;2024-02-15T00:26:20;7.03;;;4.45;;
50773;SDS011;36745;48.544;8.918;2024-02-15T00:29:40;7.57;;;3.83;;
50773;SDS011;36745;48.544;8.918;2024-02-15T00:33:00;8.05;;;4.63;;
50773;SDS011;36745;48.544;8.918;2024-02-15T00:36:22;8.95;;;4.30;;
50773;SDS011;36745;48.544;8.918;2024-02-15T00:39:42;9.10;;;4.05;;
50773;SDS011;36745;48.544;8.918;2024-02-15T00:43:02;6.20;;;4.50;;
50773;SDS011;36745;48.544;8.918;2024-02-15T00:46:22;5.32;;;4.00;;
50773;SDS011;36745;48.544;8.918;2024-02-15T00:49:41;5.43;;;4.10;;
50773;SDS011;36745;48.544;8.918;2024-02-15T00:53:01;5.40;;;3.78;;
50773;SDS011;36745;48.544;8.918;2024-02-15T00:56:21;6.10;;;4.30;;
50773;SDS011;36745;48.544;8.918;2024-02-15T00:59:41;6.90;;;3.97;;
50773;SDS011;36745;48.544;8.918;2024-02-15T01:03:01;4.57;;;3.95;;
50773;SDS011;36745;48.544;8.918;2024-02-15T01:06:22;7.35;;;4.40;;
50773;SDS011;36745;48.544;8.918;2024-02-15T01:09:42;7.13;;;4.90;;
50773;SDS011;36745;48.544;8.918;2024-02-15T01:13:02;8.82;;;4.43;;
50773;SDS011;36745;48.544;8.918;2024-02-15T01:16:21;9.43;;;4.35;;
50773;SDS011;36745;48.544;8.918;2024-02-15T01:19:41;6.65;;;4.35;;
50773;SDS011;36745;48.544;8.918;2024-02-15T01:23:01;7.32;;;4.88;;
50773;SDS011;36745;48.544;8.918;2024-02-15T01:26:21;7.25;;;4.40;;
50773;SDS011;36745;48.544;8.918;2024-02-15T01:29:42;8.00;;;4.28;;
50773;SDS011;36745;48.544;8.918;2024-02-15T01:33:02;7.40;;;4.68;;
50773;SDS011;36745;48.544;8.918;2024-02-15T01:36:22;6.18;;;4.30;;
50773;SDS011;36745;48.544;8.918;2024-02-15T01:39:42;10.07;;;4.95;;
50773;SDS011;36745;48.544;8.918;2024-02-15T01:43:02;6.18;;;4.88;;
50773;SDS011;36745;48.544;8.918;2024-02-15T01:46:23;7.22;;;4.53;;
50773;SDS011;36745;48.544;8.918;2024-02-15T01:49:44;6.95;;;4.70;;
50773;SDS011;36745;48.544;8.918;2024-02-15T01:53:04;6.40;;;4.55;;
50773;SDS011;36745;48.544;8.918;2024-02-15T01:56:26;9.57;;;4.00;;
50773;SDS011;36745;48.544;8.918;2024-02-15T01:59:49;5.57;;;4.07;;
50773;SDS011;36745;48.544;8.918;2024-02-15T02:03:11;6.93;;;4.43;;
50773;SDS011;36745;48.544;8.918;2024-02-15T02:06:33;7.47;;;4.43;;
50773;SDS011;36745;48.544;8.918;2024-02-15T02:09:53;7.65;;;4.13;;
50773;SDS011;36745;48.544;8.918;2024-02-15T02:13:13;6.00;;;4.10;;
50773;SDS011;36745;48.544;8.918;2024-02-15T02:16:33;4.78;;;3.97;;
50773;SDS011;36745;48.544;8.918;2024-02-15T02:19:54;5.95;;;3.83;;
50773;SDS011;36745;48.544;8.918;2024-02-15T02:23:14;6.35;;;3.90;;
50773;SDS011;36745;48.544;8.918;2024-02-15T02:26:34;6.82;;;3.92;;
50773;SDS011;36745;48.544;8.918;2024-02-15T02:29:54;7.38;;;4.72;;
50773;SDS011;36745;48.544;8.918;2024-02-15T02:33:15;6.75;;;3.92;;
50773;SDS011;36745;48.544;8.918;2024-02-15T02:36:37;6.53;;;4.15;;
50773;SDS011;36745;48.544;8.918;2024-02-15T02:39:57;7.97;;;4.25;;
50773;SDS011;36745;48.544;8.918;2024-02-15T02:43:17;7.35;;;4.55;;
50773;SDS011;36745;48.544;8.918;2024-02-15T02:46:37;7.18;;;4.53;;
50773;SDS011;36745;48.544;8.918;2024-02-15T02:49:56;8.10;;;4.82;;
50773;SDS011;36745;48.544;8.918;2024-02-15T02:53:16;7.53;;;4.28;;
50773;SDS011;36745;48.544;8.918;2024-02-15T02:56:36;7.22;;;5.00;;
50773;SDS011;36745;48.544;8.918;2024-02-15T02:59:56;5.95;;;4.60;;
50773;SDS011;36745;48.544;8.918;2024-02-15T03:03:16;6.25;;;5.40;;
50773;SDS011;36745;48.544;8.918;2024-02-15T03:06:36;9.48;;;5.25;;
50773;SDS011;36745;48.544;8.918;2024-02-15T03:09:55;6.50;;;5.07;;
50773;SDS011;36745;48.544;8.918;2024-02-15T03:13:15;9.13;;;5.13;;
50773;SDS011;36745;48.544;8.918;2024-02-15T03:16:35;8.38;;;5.40;;
50773;SDS011;36745;48.544;8.918;2024-02-15T03:19:55;8.43;;;5.70;;
50773;SDS011;36745;48.544;8.918;2024-02-15T03:23:15;9.73;;;4.97;;
50773;SDS011;36745;48.544;8.918;2024-02-15T03:26:34;6.63;;;5.35;;
50773;SDS011;36745;48.544;8.918;2024-02-15T03:29:57;7.90;;;4.78;;
50773;SDS011;36745;48.544;8.918;2024-02-15T03:33:19;8.15;;;5.13;;
50773;SDS011;36745;48.544;8.918;2024-02-15T03:36:40;12.38;;;5.25;;
50773;SDS011;36745;48.544;8.918;2024-02-15T03:40:00;7.20;;;5.13;;
50773;SDS011;36745;48.544;8.918;2024-02-15T03:43:19;10.52;;;5.50;;
50773;SDS011;36745;48.544;8.918;2024-02-15T03:46:39;8.82;;;5.18;;
50773;SDS011;36745;48.544;8.918;2024-02-15T03:49:59;7.38;;;4.85;;
50773;SDS011;36745;48.544;8.918;2024-02-15T03:53:19;10.40;;;5.50;;
50773;SDS011;36745;48.544;8.918;2024-02-15T03:56:48;6.40;;;5.05;;
50773;SDS011;36745;48.544;8.918;2024-02-15T04:00:10;7.75;;;4.90;;
50773;SDS011;36745;48.544;8.918;2024-02-15T04:03:33;6.15;;;3.72;;
50773;SDS011;36745;48.544;8.918;2024-02-15T04:06:53;6.85;;;5.10;;
50773;SDS011;36745;48.544;8.918;2024-02-15T04:10:13;10.50;;;5.38;;
50773;SDS011;36745;48.544;8.918;2024-02-15T04:13:33;10.65;;;5.15;;
50773;SDS011;36745;48.544;8.918;2024-02-15T04:16:53;8.32;;;4.65;;
50773;SDS011;36745;48.544;8.918;2024-02-15T04:20:13;6.70;;;5.43;;
50773;SDS011;36745;48.544;8.918;2024-02-15T04:23:35;5.95;;;5.10;;
50773;SDS011;36745;48.544;8.918;2024-02-15T04:26:55;7.40;;;5.05;;
50773;SDS011;36745;48.544;8.918;2024-02-15T04:30:14;7.75;;;5.55;;
50773;SDS011;36745;48.544;8.918;2024-02-15T04:33:34;6.63;;;5.15;;
50773;SDS011;36745;48.544;8.918;2024-02-15T04:36:54;7.00;;;5.35;;
50773;SDS011;36745;48.544;8.918;2024-02-15T04:40:15;10.70;;;6.00;;
50773;SDS011;36745;48.544;8.918;2024-02-15T04:43:35;7.25;;;5.05;;
50773;SDS011;36745;48.544;8.918;2024-02-15T04:46:57;7.90;;;4.80;;
50773;SDS011;36745;48.544;8.918;2024-02-15T04:50:17;9.60;;;5.20;;
50773;SDS011;36745;48.544;8.918;2024-02-15T04:53:37;9.00;;;5.45;;
50773;SDS011;36745;48.544;8.918;2024-02-15T04:56:58;8.02;;;5.80;;
50773;SDS011;36745;48.544;8.918;2024-02-15T05:00:18;9.98;;;5.63;;
50773;SDS011;36745;48.544;8.918;2024-02-15T05:03:40;8.40;;;5.55;;
50773;SDS011;36745;48.544;8.918;2024-02-15T05:07:03;8.03;;;4.63;;
50773;SDS011;36745;48.544;8.918;2024-02-15T05:10:23;8.23;;;5.72;;
50773;SDS011;36745;48.544;8.918;2024-02-15T05:13:46;12.68;;;6.88;;
50773;SDS011;36745;48.544;8.918;2024-02-15T05:17:06;10.05;;;6.25;;
50773;SDS011;36745;48.544;8.918;2024-02-15T05:20:29;8.18;;;6.15;;
50773;SDS011;36745;48.544;8.918;2024-02-15T05:23:49;11.02;;;6.35;;
50773;SDS011;36745;48.544;8.918;2024-02-15T05:27:08;16.70;;;10.45;;
50773;SDS011;36745;48.544;8.918;2024-02-15T05:30:28;14.18;;;9.40;;
50773;SDS011;36745;48.544;8.918;2024-02-15T05:33:52;7.07;;;5.43;;
50773;SDS011;36745;48.544;8.918;2024-02-15T05:37:12;13.15;;;10.73;;
50773;SDS011;36745;48.544;8.918;2024-02-15T05:40:32;11.05;;;8.90;;
50773;SDS011;36745;48.544;8.918;2024-02-15T05:43:52;12.60;;;9.13;;
50773;SDS011;36745;48.544;8.918;2024-02-15T05:47:12;12.95;;;9.23;;
50773;SDS011;36745;48.544;8.918;2024-02-15T05:50:32;11.27;;;8.52;;
50773;SDS011;36745;48.544;8.918;2024-02-15T05:53:52;10.98;;;7.70;;
50773;SDS011;36745;48.544;8.918;2024-02-15T05:57:17;11.88;;;8.10;;
50773;SDS011;36745;48.544;8.918;2024-02-15T06:00:37;12.20;;;8.27;;
50773;SDS011;36745;48.544;8.918;2024-02-15T06:03:57;15.15;;;10.38;;
50773;SDS011;36745;48.544;8.918;2024-02-15T06:07:17;12.38;;;8.57;;
50773;SDS011;36745;48.544;8.918;2024-02-15T06:10:38;13.45;;;8.10;;
50773;SDS011;36745;48.544;8.918;2024-02-15T06:13:58;10.30;;;6.53;;
50773;SDS011;36745;48.544;8.918;2024-02-15T06:17:18;11.75;;;6.20;;
50773;SDS011;36745;48.544;8.918;2024-02-15T06:20:38;13.77;;;7.43;;
50773;SDS011;36745;48.544;8.918;2024-02-15T06:23:58;7.97;;;6.32;;
50773;SDS011;36745;48.544;8.918;2024-02-15T06:27:18;9.45;;;5.88;;
50773;SDS011;36745;48.544;8.918;2024-02-15T06:30:38;10.63;;;5.60;;
50773;SDS011;36745;48.544;8.918;2024-02-15T06:34:17;10.18;;;6.07;;
50773;SDS011;36745;48.544;8.918;2024-02-15T06:37:55;10.48;;;5.85;;
50773;SDS011;36745;48.544;8.918;2024-02-15T06:41:33;9.80;;;5.85;;
50773;SDS011;36745;48.544;8.918;2024-02-15T06:44:53;8.02;;;6.80;;
50773;SDS011;36745;48.544;8.918;2024-02-15T06:48:13;12.02;;;8.20;;
50773;SDS011;36745;48.544;8.918;2024-02-15T06:51:33;15.43;;;8.05;;
50773;SDS011;36745;48.544;8.918;2024-02-15T06:54:53;11.52;;;7.53;;
50773;SDS011;36745;48.544;8.918;2024-02-15T06:58:13;12.60;;;8.10;;
50773;SDS011;36745;48.544;8.918;2024-02-15T07:01:34;8.77;;;7.53;;
50773;SDS011;36745;48.544;8.918;2024-02-15T07:04:54;17.15;;;10.15;;
50773;SDS011;36745;48.544;8.918;2024-02-15T07:08:14;18.55;;;11.98;;
50773;SDS011;36745;48.544;8.918;2024-02-15T07:11:34;16.10;;;10.77;;
50773;SDS011;36745;48.544;8.918;2024-02-15T07:14:54;13.65;;;8.27;;
50773;SDS011;36745;48.544;8.918;2024-02-15T07:18:15;16.17;;;8.93;;
50773;SDS011;36745;48.544;8.918;2024-02-15T07:24:57;12.60;;;7.60;;
50773;SDS011;36745;48.544;8.918;2024-02-15T07:28:17;11.27;;;7.15;;
50773;SDS011;36745;48.544;8.918;2024-02-15T07:31:37;10.45;;;7.53;;
50773;SDS011;36745;48.544;8.918;2024-02-15T07:34:58;13.57;;;7.78;;
50773;SDS011;36745;48.544;8.918;2024-02-15T07:38:18;10.20;;;7.10;;
50773;SDS011;36745;48.544;8.918;2024-02-15T07:41:38;13.07;;;7.82;;
50773;SDS011;36745;48.544;8.918;2024-02-15T07:44:58;8.98;;;7.80;;
50773;SDS011;36745;48.544;8.918;2024-02-15T07:48:18;8.00;;;7.20;;
50773;SDS011;36745;48.544;8.918;2024-02-15T07:51:37;11.13;;;8.10;;
50773;SDS011;36745;48.544;8.918;2024-02-15T07:54:57;8.40;;;7.00;;
50773;SDS011;36745;48.544;8.918;2024-02-15T07:58:17;10.98;;;8.13;;
50773;SDS011;36745;48.544;8.918;2024-02-15T08:01:39;12.93;;;7.80;;
50773;SDS011;36745;48.544;8.918;2024-02-15T08:05:00;12.43;;;7.60;;
50773;SDS011;36745;48.544;8.918;2024-02-15T08:11:43;9.40;;;7.18;;
50773;SDS011;36745;48.544;8.918;2024-02-15T08:15:03;13.30;;;7.93;;
50773;SDS011;36745;48.544;8.918;2024-02-15T08:18:24;11.77;;;7.05;;
50773;SDS011;36745;48.544;8.918;2024-02-15T08:21:45;12.95;;;7.13;;
50773;SDS011;36745;48.544;8.918;2024-02-15T08:25:10;11.75;;;6.40;;
50773;SDS011;36745;48.544;8.918;2024-02-15T08:28:30;7.70;;;6.25;;
50773;SDS011;36745;48.544;8.918;2024-02-15T08:31:50;9.02;;;7.38;;
50773;SDS011;36745;48.544;8.918;2024-02-15T08:35:10;13.77;;;8.35;;
50773;SDS011;36745;48.544;8.918;2024-02-15T08:38:31;10.25;;;7.28;;
50773;SDS011;36745;48.544;8.918;2024-02-15T08:41:51;10.73;;;7.93;;
50773;SDS011;36745;48.544;8.918;2024-02-15T08:45:12;9.05;;;7.30;;
50773;SDS011;36745;48.544;8.918;2024-02-15T08:48:32;11.80;;;7.50;;
50773;SDS011;36745;48.544;8.918;2024-02-15T08:51:52;9.35;;;7.25;;
50773;SDS011;36745;48.544;8.918;2024-02-15T08:55:12;9.63;;;7.47;;
50773;SDS011;36745;48.544;8.918;2024-02-15T08:58:35;10.88;;;8.27;;
50773;SDS011;36745;48.544;8.918;2024-02-15T09:01:55;11.30;;;7.85;;
50773;SDS011;36745;48.544;8.918;2024-02-15T09:05:15;10.45;;;8.35;;
50773;SDS011;36745;48.544;8.918;2024-02-15T09:08:34;16.30;;;7.78;;
50773;SDS011;36745;48.544;8.918;2024-02-15T09:11:54;11.07;;;8.60;;
50773;SDS011;36745;48.544;8.918;2024-02-15T09:15:14;11.55;;;7.43;;
50773;SDS011;36745;48.544;8.918;2024-02-15T09:18:34;9.38;;;7.78;;
50773;SDS011;36745;48.544;8.918;2024-02-15T09:21:55;11.77;;;7.55;;
50773;SDS011;36745;48.544;8.918;2024-02-15T09:25:15;8.85;;;7.07;;
50773;SDS011;36745;48.544;8.918;2024-02-15T09:28:36;15.15;;;8.13;;
50773;SDS011;36745;48.544;8.918;2024-02-15T09:31:56;11.73;;;6.57;;
50773;SDS011;36745;48.544;8.918;2024-02-15T09:35:16;15.27;;;7.45;;
50773;SDS011;36745;48.544;8.918;2024-02-15T09:38:36;17.83;;;11.30;;
50773;SDS011;36745;48.544;8.918;2024-02-15T09:41:56;14.25;;;9.27;;
50773;SDS011;36745;48.544;8.918;2024-02-15T09:45:18;7.38;;;6.25;;
50773;SDS011;36745;48.544;8.918;2024-02-15T09:48:39;7.93;;;6.07;;
50773;SDS011;36745;48.544;8.918;2024-02-15T09:52:03;10.70;;;6.32;;
50773;SDS011;36745;48.544;8.918;2024-02-15T09:55:23;8.75;;;5.97;;
50773;SDS011;36745;48.544;8.918;2024-02-15T09:58:44;11.00;;;6.90;;
50773;SDS011;36745;48.544;8.918;2024-02-15T10:02:04;7.30;;;5.47;;
50773;SDS011;36745;48.544;8.918;2024-02-15T10:05:29;11.35;;;7.90;;
50773;SDS011;36745;48.544;8.918;2024-02-15T10:08:50;10.50;;;7.60;;
50773;SDS011;36745;48.544;8.918;2024-02-15T10:12:10;8.35;;;5.60;;
50773;SDS011;36745;48.544;8.918;2024-02-15T10:15:30;10.13;;;6.55;;
50773;SDS011;36745;48.544;8.918;2024-02-15T10:18:51;8.32;;;6.55;;
50773;SDS011;36745;48.544;8.918;2024-02-15T10:22:11;12.55;;;6.78;;
50773;SDS011;36745;48.544;8.918;2024-02-15T10:25:31;9.13;;;5.60;;
50773;SDS011;36745;48.544;8.918;2024-02-15T10:29:04;12.32;;;6.82;;
50773;SDS011;36745;48.544;8.918;2024-02-15T10:32:34;8.75;;;6.03;;
50773;SDS011;36745;48.544;8.918;2024-02-15T10:36:10;16.80;;;8.85;;
50773;SDS011;36745;48.544;8.918;2024-02-15T10:39:33;12.57;;;5.75;;
50773;SDS011;36745;48.544;8.918;2024-02-15T10:42:53;9.40;;;5.45;;
50773;SDS011;36745;48.544;8.918;2024-02-15T10:46:15;7.85;;;5.40;;
50773;SDS011;36745;48.544;8.918;2024-02-15T10:49:36;7.03;;;4.55;;
50773;SDS011;36745;48.544;8.918;2024-02-15T10:52:56;8.10;;;4.50;;
50773;SDS011;36745;48.544;8.918;2024-02-15T10:56:17;6.78;;;4.93;;
50773;SDS011;36745;48.544;8.918;2024-02-15T10:59:43;10.00;;;5.43;;
50773;SDS011;36745;48.544;8.918;2024-02-15T11:03:24;6.90;;;4.70;;
50773;SDS011;36745;48.544;8.918;2024-02-15T11:06:50;8.27;;;4.30;;
50773;SDS011;36745;48.544;8.918;2024-02-15T11:10:11;6.80;;;4.00;;
50773;SDS011;36745;48.544;8.918;2024-02-15T11:13:35;7.50;;;4.55;;
50773;SDS011;36745;48.544;8.918;2024-02-15T11:16:55;8.90;;;4.80;;
50773;SDS011;36745;48.544;8.918;2024-02-15T11:23:51;7.93;;;4.28;;
50773;SDS011;36745;48.544;8.918;2024-02-15T11:27:11;9.15;;;3.60;;
50773;SDS011;36745;48.544;8.918;2024-02-15T11:30:33;4.00;;;2.63;;
50773;SDS011;36745;48.544;8.918;2024-02-15T11:33:53;5.63;;;2.50;;
50773;SDS011;36745;48.544;8.918;2024-02-15T11:41:07;5.43;;;2.42;;
50773;SDS011;36745;48.544;8.918;2024-02-15T11:44:30;4.20;;;2.33;;
50773;SDS011;36745;48.544;8.918;2024-02-15T11:47:52;4.63;;;2.17;;
50773;SDS011;36745;48.544;8.918;2024-02-15T11:54:49;7.78;;;2.92;;
50773;SDS011;36745;48.544;8.918;2024-02-15T11:58:09;5.72;;;2.78;;
50773;SDS011;36745;48.544;8.918;2024-02-15T12:01:29;5.05;;;2.35;;
50773;SDS011;36745;48.544;8.918;2024-02-15T12:05:08;3.45;;;2.13;;
50773;SDS011;36745;48.544;8.918;2024-02-15T12:08:47;24.13;;;9.80;;
50773;SDS011;36745;48.544;8.918;2024-02-15T12:12:27;4.85;;;2.20;;
50773;SDS011;36745;48.544;8.918;2024-02-15T12:16:05;6.38;;;2.30;;
50773;SDS011;36745;48.544;8.918;2024-02-15T12:19:43;3.92;;;2.22;;
50773;SDS011;36745;48.544;8.918;2024-02-15T12:23:03;3.60;;;1.95;;
50773;SDS011;36745;48.544;8.918;2024-02-15T12:26:25;3.65;;;2.30;;
50773;SDS011;36745;48.544;8.918;2024-02-15T12:29:56;3.28;;;2.05;;
50773;SDS011;36745;48.544;8.918;2024-02-15T12:33:17;4.00;;;2.08;;
50773;SDS011;36745;48.544;8.918;2024-02-15T12:36:39;3.47;;;2.25;;
50773;SDS011;36745;48.544;8.918;2024-02-15T12:39:58;3.85;;;2.42;;
50773;SDS011;36745;48.544;8.918;2024-02-15T12:43:30;5.25;;;2.55;;
50773;SDS011;36745;48.544;8.918;2024-02-15T12:46:53;6.47;;;2.50;;
50773;SDS011;36745;48.544;8.918;2024-02-15T12:50:18;3.80;;;2.42;;
50773;SDS011;36745;48.544;8.918;2024-02-15T12:53:41;3.80;;;2.30;;
50773;SDS011;36745;48.544;8.918;2024-02-15T12:57:08;4.93;;;2.38;;
50773;SDS011;36745;48.544;8.918;2024-02-15T13:00:33;4.53;;;3.10;;
50773;SDS011;36745;48.544;8.918;2024-02-15T13:03:55;5.03;;;2.75;;
50773;SDS011;36745;48.544;8.918;2024-02-15T13:07:15;6.60;;;2.92;;
50773;SDS011;36745;48.544;8.918;2024-02-15T13:10:35;4.78;;;2.42;;
50773;SDS011;36745;48.544;8.918;2024-02-15T13:17:38;5.22;;;2.47;;
50773;SDS011;36745;48.544;8.918;2024-02-15T13:20:58;5.88;;;2.40;;
50773;SDS011;36745;48.544;8.918;2024-02-15T13:24:18;5.53;;;2.60;;
50773;SDS011;36745;48.544;8.918;2024-02-15T13:27:40;5.03;;;2.30;;
50773;SDS011;36745;48.544;8.918;2024-02-15T13:30:59;3.40;;;2.70;;
50773;SDS011;36745;48.544;8.918;2024-02-15T13:34:20;9.63;;;3.63;;
50773;SDS011;36745;48.544;8.918;2024-02-15T13:37:40;10.00;;;5.45;;
50773;SDS011;36745;48.544;8.918;2024-02-15T13:41:06;4.50;;;2.67;;
50773;SDS011;36745;48.544;8.918;2024-02-15T13:44:26;3.20;;;2.63;;
50773;SDS011;36745;48.544;8.918;2024-02-15T13:47:46;5.82;;;2.40;;
50773;SDS011;36745;48.544;8.918;2024-02-15T13:51:06;7.60;;;2.45;;
50773;SDS011;36745;48.544;8.918;2024-02-15T13:54:28;12.18;;;2.55;;
50773;SDS011;36745;48.544;8.918;2024-02-15T13:57:49;6.82;;;2.53;;
50773;SDS011;36745;48.544;8.918;2024-02-15T14:01:09;6.82;;;2.47;;
50773;SDS011;36745;48.544;8.918;2024-02-15T14:04:33;2.97;;;1.83;;
50773;SDS011;36745;48.544;8.918;2024-02-15T14:08:01;6.97;;;3.58;;
50773;SDS011;36745;48.544;8.918;2024-02-15T14:11:24;8.75;;;3.50;;
50773;SDS011;36745;48.544;8.918;2024-02-15T14:14:44;5.32;;;3.00;;
50773;SDS011;36745;48.544;8.918;2024-02-15T14:18:07;6.88;;;2.50;;
50773;SDS011;36745;48.544;8.918;2024-02-15T14:21:30;7.97;;;2.22;;
50773;SDS011;36745;48.544;8.918;2024-02-15T14:24:53;4.53;;;2.53;;
50773;SDS011;36745;48.544;8.918;2024-02-15T14:28:13;4.05;;;2.30;;
50773;SDS011;36745;48.544;8.918;2024-02-15T14:31:33;6.78;;;3.55;;
50773;SDS011;36745;48.544;8.918;2024-02-15T14:35:13;4.25;;;2.40;;
50773;SDS011;36745;48.544;8.918;2024-02-15T14:38:33;4.60;;;2.58;;
50773;SDS011;36745;48.544;8.918;2024-02-15T14:41:53;5.50;;;2.53;;
50773;SDS011;36745;48.544;8.918;2024-02-15T14:45:13;4.18;;;2.08;;
50773;SDS011;36745;48.544;8.918;2024-02-15T14:48:33;4.25;;;2.28;;
50773;SDS011;36745;48.544;8.918;2024-02-15T14:51:53;6.38;;;2.22;;
50773;SDS011;36745;48.544;8.918;2024-02-15T14:55:13;6.63;;;2.20;;
50773;SDS011;36745;48.544;8.918;2024-02-15T14:58:32;7.18;;;2.75;;
50773;SDS011;36745;48.544;8.918;2024-02-15T15:01:52;6.22;;;4.07;;
50773;SDS011;36745;48.544;8.918;2024-02-15T15:05:12;4.22;;;3.08;;
50773;SDS011;36745;48.544;8.918;2024-02-15T15:08:51;5.75;;;2.60;;
50773;SDS011;36745;48.544;8.918;2024-02-15T15:12:29;4.15;;;2.42;;
50773;SDS011;36745;48.544;8.918;2024-02-15T15:15:59;4.32;;;2.75;;
50773;SDS011;36745;48.544;8.918;2024-02-15T15:19:19;5.22;;;2.20;;
50773;SDS011;36745;48.544;8.918;2024-02-15T15:22:39;5.15;;;2.10;;
50773;SDS011;36745;48.544;8.918;2024-02-15T15:25:59;6.82;;;2.33;;
50773;SDS011;36745;48.544;8.918;2024-02-15T15:29:22;5.47;;;2.13;;
50773;SDS011;36745;48.544;8.918;2024-02-15T15:32:42;3.40;;;2.08;;
50773;SDS011;36745;48.544;8.918;2024-02-15T15:36:03;4.05;;;2.13;;
50773;SDS011;36745;48.544;8.918;2024-02-15T15:39:23;5.88;;;2.10;;
50773;SDS011;36745;48.544;8.918;2024-02-15T15:42:44;5.55;;;2.22;;
50773;SDS011;36745;48.544;8.918;2024-02-15T15:46:03;3.33;;;2.00;;
50773;SDS011;36745;48.544;8.918;2024-02-15T15:49:23;3.28;;;1.85;;
50773;SDS011;36745;48.544;8.918;2024-02-15T15:52:43;5.88;;;1.95;;
50773;SDS011;36745;48.544;8.918;2024-02-15T15:56:05;9.32;;;2.13;;
50773;SDS011;36745;48.544;8.918;2024-02-15T15:59:25;5.00;;;2.10;;
50773;SDS011;36745;48.544;8.918;2024-02-15T16:02:45;6.22;;;2.00;;
50773;SDS011;36745;48.544;8.918;2024-02-15T16:06:05;3.55;;;1.80;;
50773;SDS011;36745;48.544;8.918;2024-02-15T16:09:26;3.92;;;1.65;;
50773;SDS011;36745;48.544;8.918;2024-02-15T16:12:46;6.45;;;2.40;;
50773;SDS011;36745;48.544;8.918;2024-02-15T16:16:06;12.20;;;2.50;;
50773;SDS011;36745;48.544;8.918;2024-02-15T16:19:26;3.88;;;2.13;;
50773;SDS011;36745;48.544;8.918;2024-02-15T16:22:47;3.58;;;2.10;;
50773;SDS011;36745;48.544;8.918;2024-02-15T16:26:08;10.35;;;2.50;;
50773;SDS011;36745;48.544;8.918;2024-02-15T16:29:29;7.10;;;1.85;;
50773;SDS011;36745;48.544;8.918;2024-02-15T16:32:48;7.65;;;2.30;;
50773;SDS011;36745;48.544;8.918;2024-02-15T16:36:08;10.38;;;2.25;;
50773;SDS011;36745;48.544;8.918;2024-02-15T16:39:29;6.32;;;2.20;;
50773;SDS011;36745;48.544;8.918;2024-02-15T16:42:49;6.10;;;1.77;;
50773;SDS011;36745;48.544;8.918;2024-02-15T16:46:10;6.68;;;1.90;;
50773;SDS011;36745;48.544;8.918;2024-02-15T16:49:32;8.10;;;2.65;;
50773;SDS011;36745;48.544;8.918;2024-02-15T16:52:52;9.63;;;2.20;;
50773;SDS011;36745;48.544;8.918;2024-02-15T16:56:15;6.32;;;2.05;;
50773;SDS011;36745;48.544;8.918;2024-02-15T16:59:36;4.10;;;2.17;;
50773;SDS011;36745;48.544;8.918;2024-02-15T17:02:56;6.95;;;2.85;;
50773;SDS011;36745;48.544;8.918;2024-02-15T17:06:16;5.95;;;2.22;;
50773;SDS011;36745;48.544;8.918;2024-02-15T17:09:36;4.10;;;2.00;;
50773;SDS011;36745;48.544;8.918;2024-02-15T17:12:56;4.40;;;2.53;;
50773;SDS011;36745;48.544;8.918;2024-02-15T17:16:17;11.38;;;2.63;;
50773;SDS011;36745;48.544;8.918;2024-02-15T17:19:37;7.80;;;2.60;;
50773;SDS011;36745;48.544;8.918;2024-02-15T17:22:57;7.28;;;2.28;;
50773;SDS011;36745;48.544;8.918;2024-02-15T17:26:17;14.80;;;6.30;;
50773;SDS011;36745;48.544;8.918;2024-02-15T17:29:38;17.40;;;5.60;;
50773;SDS011;36745;48.544;8.918;2024-02-15T17:32:58;11.25;;;4.05;;
50773;SDS011;36745;48.544;8.918;2024-02-15T17:36:18;6.97;;;3.17;;
50773;SDS011;36745;48.544;8.918;2024-02-15T17:39:38;8.95;;;3.95;;
50773;SDS011;36745;48.544;8.918;2024-02-15T17:42:58;13.00;;;3.50;;
50773;SDS011;36745;48.544;8.918;2024-02-15T17:46:18;12.95;;;4.20;;
50773;SDS011;36745;48.544;8.918;2024-02-15T17:49:37;31.40;;;11.93;;
50773;SDS011;36745;48.544;8.918;2024-02-15T17:52:57;15.52;;;5.35;;
50773;SDS011;36745;48.544;8.918;2024-02-15T17:56:17;7.43;;;3.00;;
50773;SDS011;36745;48.544;8.918;2024-02-15T17:59:37;9.75;;;3.08;;
50773;SDS011;36745;48.544;8.918;2024-02-15T18:02:57;11.55;;;4.72;;
50773;SDS011;36745;48.544;8.918;2024-02-15T18:06:18;5.93;;;2.70;;
50773;SDS011;36745;48.544;8.918;2024-02-15T18:09:38;10.48;;;7.28;;
50773;SDS011;36745;48.544;8.918;2024-02-15T18:12:58;6.03;;;3.75;;
50773;SDS011;36745;48.544;8.918;2024-02-15T18:16:18;9.48;;;4.70;;
50773;SDS011;36745;48.544;8.918;2024-02-15T18:19:39;11.68;;;6.38;;
50773;SDS011;36745;48.544;8.918;2024-02-15T18:22:59;17.92;;;9.30;;
50773;SDS011;36745;48.544;8.918;2024-02-15T18:26:19;20.73;;;10.18;;
50773;SDS011;36745;48.544;8.918;2024-02-15T18:29:39;39.70;;;23.35;;
50773;SDS011;36745;48.544;8.918;2024-02-15T18:32:59;24.90;;;13.95;;
50773;SDS011;36745;48.544;8.918;2024-02-15T18:36:19;27.05;;;15.45;;
50773;SDS011;36745;48.544;8.918;2024-02-15T18:39:39;21.30;;;12.50;;
50773;SDS011;36745;48.544;8.918;2024-02-15T18:42:59;30.15;;;15.77;;
50773;SDS011;36745;48.544;8.918;2024-02-15T18:46:19;45.72;;;18.27;;
50773;SDS011;36745;48.544;8.918;2024-02-15T18:49:39;55.03;;;27.80;;
50773;SDS011;36745;48.544;8.918;2024-02-15T18:52:59;25.67;;;15.25;;
50773;SDS011;36745;48.544;8.918;2024-02-15T18:56:19;28.60;;;13.07;;
50773;SDS011;36745;48.544;8.918;2024-02-15T18:59:39;60.15;;;35.25;;
50773;SDS011;36745;48.544;8.918;2024-02-15T19:02:59;31.65;;;17.45;;
50773;SDS011;36745;48.544;8.918;2024-02-15T19:06:19;28.08;;;16.50;;
50773;SDS011;36745;48.544;8.918;2024-02-15T19:09:39;21.90;;;14.15;;
50773;SDS011;36745;48.544;8.918;2024-02-15T19:12:59;25.33;;;13.18;;
50773;SDS011;36745;48.544;8.918;2024-02-15T19:16:19;27.60;;;14.35;;
50773;SDS011;36745;48.544;8.918;2024-02-15T19:19:40;24.75;;;11.85;;
50773;SDS011;36745;48.544;8.918;2024-02-15T19:23:00;15.85;;;10.93;;
50773;SDS011;36745;48.544;8.918;2024-02-15T19:26:20;27.40;;;16.27;;
50773;SDS011;36745;48.544;8.918;2024-02-15T19:29:40;26.25;;;16.02;;
50773;SDS011;36745;48.544;8.918;2024-02-15T19:33:00;29.20;;;16.42;;
50773;SDS011;36745;48.544;8.918;2024-02-15T19:36:19;26.20;;;15.68;;
50773;SDS011;36745;48.544;8.918;2024-02-15T19:39:43;24.13;;;15.23;;
50773;SDS011;36745;48.544;8.918;2024-02-15T19:43:08;22.48;;;12.23;;
50773;SDS011;36745;48.544;8.918;2024-02-15T19:46:34;23.73;;;13.85;;
50773;SDS011;36745;48.544;8.918;2024-02-15T19:50:01;20.30;;;12.35;;
50773;SDS011;36745;48.544;8.918;2024-02-15T19:53:22;23.77;;;13.43;;
50773;SDS011;36745;48.544;8.918;2024-02-15T19:56:42;22.40;;;12.98;;
50773;SDS011;36745;48.544;8.918;2024-02-15T20:00:03;18.13;;;11.00;;
50773;SDS011;36745;48.544;8.918;2024-02-15T20:06:47;16.42;;;10.35;;
50773;SDS011;36745;48.544;8.918;2024-02-15T20:10:07;22.00;;;12.48;;
50773;SDS011;36745;48.544;8.918;2024-02-15T20:13:28;28.17;;;15.75;;
50773;SDS011;36745;48.544;8.918;2024-02-15T20:16:51;24.88;;;14.43;;
50773;SDS011;36745;48.544;8.918;2024-02-15T20:20:15;20.42;;;13.05;;
50773;SDS011;36745;48.544;8.918;2024-02-15T20:23:39;20.70;;;13.32;;
50773;SDS011;36745;48.544;8.918;2024-02-15T20:26:59;28.55;;;14.50;;
50773;SDS011;36745;48.544;8.918;2024-02-15T20:30:19;27.15;;;14.57;;